Time;durP1;ratioP1;P1;durP2;ratioP2;P2;SDS_P1;SDS_P2;PMS_P1;PMS_P2;Temp;Humidity;BMP_temperature;BMP_pressure;BME280_temperature;BME280_humidity;BME280_pressure;Samples;Min_cycle;Max_cycle;Signal;HPM_P1;HPM_P2
2021/01/12 00:02:22;;;;;;;33.22;20.73;;;6.50;99.30;;;;;;4964319;28;20063;-83
2021/01/12 00:04:48;;;;;;;27.10;17.42;;;6.50;99.30;;;;;;4966246;28;20047;-82
2021/01/12 00:07:18;;;;;;;34.80;19.98;;;6.60;99.40;;;;;;4962766;28;20129;-82
2021/01/12 00:09:43;;;;;;;25.52;16.95;;;6.50;99.30;;;;;;4953539;28;20142;-82
2021/01/12 00:12:09;;;;;;;26.05;17.48;;;6.50;99.30;;;;;;4950751;28;20907;-82
2021/01/12 00:14:36;;;;;;;31.30;18.98;;;6.50;99.30;;;;;;4951419;28;20043;-82
2021/01/12 00:17:06;;;;;;;24.45;17.80;;;6.50;99.40;;;;;;4961330;28;20053;-83
2021/01/12 00:19:33;;;;;;;27.08;17.70;;;6.50;99.40;;;;;;4962402;28;20051;-83
2021/01/12 00:22:00;;;;;;;25.20;15.82;;;6.50;99.40;;;;;;4963253;28;20546;-83
2021/01/12 00:24:26;;;;;;;22.70;14.90;;;6.50;99.40;;;;;;4950144;28;20047;-83
2021/01/12 00:26:52;;;;;;;25.77;16.08;;;6.60;99.40;;;;;;4961365;28;20043;-82
2021/01/12 00:29:18;;;;;;;26.80;15.95;;;6.60;99.40;;;;;;4969963;28;20043;-82
2021/01/12 00:31:45;;;;;;;31.63;17.60;;;6.60;99.40;;;;;;4962540;28;20054;-82
2021/01/12 00:34:12;;;;;;;23.00;14.90;;;6.60;99.40;;;;;;4958408;28;20070;-82
2021/01/12 00:36:46;;;;;;;29.92;16.45;;;6.60;99.40;;;;;;4943517;28;20129;-82
2021/01/12 00:39:13;;;;;;;18.00;13.13;;;6.60;99.40;;;;;;4961997;28;20053;-82
2021/01/12 00:41:39;;;;;;;22.67;14.93;;;6.60;99.40;;;;;;4942461;28;20070;-82
2021/01/12 00:44:06;;;;;;;27.83;16.60;;;6.60;99.40;;;;;;4949637;28;20056;-82
2021/01/12 00:46:35;;;;;;;19.35;14.63;;;6.60;99.40;;;;;;4967019;28;20114;-82
2021/01/12 00:49:01;;;;;;;22.00;14.90;;;6.60;99.40;;;;;;4936848;28;20051;-82
2021/01/12 00:51:37;;;;;;;22.05;14.77;;;6.60;99.40;;;;;;4962458;28;20110;-82
2021/01/12 00:54:11;;;;;;;22.30;14.60;;;6.60;99.40;;;;;;4960728;28;20055;-82
2021/01/12 00:56:37;;;;;;;25.48;15.30;;;6.70;99.40;;;;;;4950283;28;20471;-82
2021/01/12 00:59:04;;;;;;;23.77;14.23;;;6.70;99.40;;;;;;4962920;28;20075;-82
2021/01/12 01:01:30;;;;;;;25.17;13.93;;;6.70;99.40;;;;;;4968502;28;20078;-82
2021/01/12 01:03:56;;;;;;;17.83;11.95;;;6.70;99.40;;;;;;4961020;28;20047;-82
2021/01/12 01:06:22;;;;;;;20.63;12.32;;;6.70;99.40;;;;;;4969475;28;20054;-82
2021/01/12 01:08:48;;;;;;;21.75;13.57;;;6.70;99.40;;;;;;4964121;28;20034;-82
2021/01/12 01:11:14;;;;;;;31.27;14.20;;;6.70;99.40;;;;;;4970146;28;20057;-82
2021/01/12 01:13:40;;;;;;;16.63;11.50;;;6.80;99.50;;;;;;4961070;28;20033;-82
2021/01/12 01:16:06;;;;;;;16.95;11.57;;;6.80;99.50;;;;;;4968199;28;20070;-82
2021/01/12 01:18:33;;;;;;;20.63;12.27;;;6.80;99.50;;;;;;4963762;28;20495;-82
2021/01/12 01:20:59;;;;;;;21.85;11.43;;;6.80;99.50;;;;;;4950617;28;20110;-82
2021/01/12 01:23:25;;;;;;;15.57;8.93;;;6.80;99.50;;;;;;4962909;28;20610;-82
2021/01/12 01:25:52;;;;;;;19.05;10.40;;;6.80;99.50;;;;;;4970469;28;20050;-82
2021/01/12 01:28:19;;;;;;;24.00;10.75;;;6.80;99.80;;;;;;4964394;28;20078;-82
2021/01/12 01:30:45;;;;;;;23.48;10.77;;;6.80;99.50;;;;;;4970672;28;20034;-82
2021/01/12 01:33:11;;;;;;;21.13;10.15;;;6.80;99.50;;;;;;4973150;28;20126;-83
2021/01/12 01:35:37;;;;;;;13.40;7.90;;;6.80;99.50;;;;;;4963610;28;20077;-82
2021/01/12 01:38:03;;;;;;;12.88;7.57;;;6.80;99.50;;;;;;4969215;28;20035;-82
2021/01/12 01:40:30;;;;;;;15.00;9.50;;;6.90;99.50;;;;;;4965307;28;20450;-82
2021/01/12 01:42:56;;;;;;;21.15;11.02;;;6.80;99.50;;;;;;4967981;28;20181;-82
2021/01/12 01:45:24;;;;;;;17.10;10.20;;;6.90;99.50;;;;;;4955691;28;20051;-81
2021/01/12 01:47:50;;;;;;;15.43;9.63;;;6.90;99.50;;;;;;4969099;28;20039;-81
2021/01/12 01:50:18;;;;;;;20.27;11.50;;;6.90;99.60;;;;;;4962467;28;20039;-82
2021/01/12 01:52:48;;;;;;;21.30;11.48;;;6.90;99.60;;;;;;4970022;28;20069;-82
2021/01/12 01:55:15;;;;;;;17.85;10.63;;;6.90;99.60;;;;;;4961000;28;20073;-82
2021/01/12 01:57:40;;;;;;;18.80;10.00;;;6.80;99.60;;;;;;4955824;28;20472;-82
2021/01/12 02:00:08;;;;;;;13.80;7.90;;;6.90;99.60;;;;;;4962042;28;20170;-82
2021/01/12 02:02:55;;;;;;;14.63;9.23;;;6.90;99.60;;;;;;4967249;28;20526;-82
2021/01/12 02:05:27;;;;;;;17.35;9.65;;;6.90;99.60;;;;;;4960420;28;20043;-82
2021/01/12 02:07:57;;;;;;;11.73;8.82;;;6.80;99.60;;;;;;4971518;28;20480;-82
2021/01/12 02:10:24;;;;;;;16.00;9.10;;;6.90;99.60;;;;;;4941973;28;20082;-81
2021/01/12 02:13:00;;;;;;;10.98;8.23;;;6.80;99.60;;;;;;4968622;28;20471;-81
2021/01/12 02:15:28;;;;;;;11.60;8.20;;;6.90;99.60;;;;;;4963759;28;20046;-80
2021/01/12 02:17:55;;;;;;;11.20;7.72;;;6.80;99.60;;;;;;4957739;28;20121;-81
2021/01/12 02:20:25;;;;;;;11.05;7.32;;;6.90;99.60;;;;;;4962715;28;20082;-81
2021/01/12 02:23:06;;;;;;;9.57;6.03;;;6.90;99.60;;;;;;4966672;28;20046;-81
2021/01/12 02:25:35;;;;;;;11.57;6.28;;;6.90;99.50;;;;;;4962747;28;20043;-81
2021/01/12 02:28:05;;;;;;;10.75;5.93;;;6.90;99.60;;;;;;4965566;28;20456;-81
2021/01/12 02:30:31;;;;;;;6.90;5.60;;;6.90;99.60;;;;;;4965000;28;20051;-81
2021/01/12 02:32:57;;;;;;;5.47;3.95;;;6.90;99.60;;;;;;4961557;28;20530;-81
2021/01/12 02:35:26;;;;;;;6.75;4.30;;;6.90;99.50;;;;;;4969337;28;20070;-81
2021/01/12 02:37:55;;;;;;;5.95;5.05;;;6.90;99.50;;;;;;4960085;28;20471;-81
2021/01/12 02:40:22;;;;;;;6.85;5.05;;;6.90;99.50;;;;;;4963877;28;20031;-81
2021/01/12 02:42:48;;;;;;;8.20;5.72;;;6.90;99.60;;;;;;4959119;28;20099;-81
2021/01/12 02:45:14;;;;;;;7.88;5.80;;;6.90;99.50;;;;;;4965311;28;20066;-81
2021/01/12 02:47:40;;;;;;;7.55;5.43;;;6.90;99.50;;;;;;4959502;28;20046;-81
2021/01/12 02:50:07;;;;;;;5.57;4.85;;;7.00;99.50;;;;;;4967327;28;20578;-81
2021/01/12 02:52:33;;;;;;;6.55;3.90;;;6.90;99.50;;;;;;4961811;28;20121;-81
2021/01/12 02:54:59;;;;;;;6.07;4.95;;;6.90;99.50;;;;;;4951827;28;20142;-81
2021/01/12 02:57:25;;;;;;;7.88;7.00;;;6.90;99.50;;;;;;4958842;28;20110;-81
2021/01/12 02:59:51;;;;;;;10.48;7.50;;;7.00;99.50;;;;;;4962286;28;20051;-81
2021/01/12 03:02:17;;;;;;;12.45;8.90;;;6.90;99.60;;;;;;4956435;28;20391;-79
2021/01/12 03:04:42;;;;;;;12.07;9.40;;;7.00;99.60;;;;;;4965985;28;20261;-80
2021/01/12 03:07:08;;;;;;;12.52;9.77;;;6.90;99.60;;;;;;4957800;28;20038;-80
2021/01/12 03:09:34;;;;;;;12.68;7.53;;;6.90;99.60;;;;;;4966913;28;20043;-80
2021/01/12 03:12:00;;;;;;;10.00;6.95;;;6.80;99.50;;;;;;4954269;28;20121;-80
2021/01/12 03:14:26;;;;;;;11.13;8.10;;;6.90;99.50;;;;;;4961274;28;20085;-80
2021/01/12 03:16:52;;;;;;;9.23;7.85;;;6.90;99.50;;;;;;4962605;28;20057;-80
2021/01/12 03:19:18;;;;;;;10.50;7.90;;;6.90;99.50;;;;;;4964526;28;20042;-80
2021/01/12 03:21:44;;;;;;;6.03;5.35;;;6.90;99.50;;;;;;4970403;28;20230;-81
2021/01/12 03:24:10;;;;;;;10.25;7.63;;;6.90;99.50;;;;;;4955838;28;20042;-81
2021/01/12 03:26:37;;;;;;;8.95;8.00;;;6.90;99.50;;;;;;4963530;28;20483;-81
2021/01/12 03:29:03;;;;;;;9.32;6.95;;;6.90;99.50;;;;;;4955982;28;20046;-80
2021/01/12 03:31:29;;;;;;;8.73;6.65;;;6.90;99.50;;;;;;4967236;28;20049;-80
2021/01/12 03:33:55;;;;;;;12.73;8.13;;;6.90;99.50;;;;;;4955912;28;20054;-80
2021/01/12 03:36:21;;;;;;;11.95;7.30;;;6.90;99.50;;;;;;4965907;28;20113;-80
2021/01/12 03:38:48;;;;;;;9.55;7.32;;;6.90;99.50;;;;;;4952329;28;20551;-80
2021/01/12 03:41:14;;;;;;;9.40;7.10;;;6.90;99.50;;;;;;4965943;28;20432;-81
2021/01/12 03:43:39;;;;;;;11.90;6.93;;;6.90;99.50;;;;;;4957704;28;20098;-80
2021/01/12 03:46:05;;;;;;;12.15;7.47;;;6.90;99.50;;;;;;4964518;28;20075;-81
2021/01/12 03:48:31;;;;;;;13.07;7.47;;;6.90;99.50;;;;;;4968935;28;20034;-81
2021/01/12 03:50:57;;;;;;;12.40;7.93;;;6.90;99.50;;;;;;4959900;28;20074;-80
2021/01/12 03:53:22;;;;;;;13.90;8.18;;;6.90;99.50;;;;;;4967538;28;20454;-81
2021/01/12 03:55:49;;;;;;;11.80;7.20;;;6.90;99.50;;;;;;4960384;28;20047;-81
2021/01/12 03:58:14;;;;;;;16.23;8.02;;;6.80;99.50;;;;;;4956302;28;20034;-81
2021/01/12 04:00:40;;;;;;;9.40;6.60;;;6.80;99.50;;;;;;4959571;28;20051;-80
2021/01/12 04:03:06;;;;;;;13.20;6.93;;;6.80;99.50;;;;;;4953011;28;20054;-80
2021/01/12 04:05:31;;;;;;;12.30;6.75;;;6.80;99.50;;;;;;4957688;28;20055;-80
2021/01/12 04:08:00;;;;;;;12.00;6.60;;;6.90;99.50;;;;;;4964325;28;20072;-80
2021/01/12 04:10:27;;;;;;;13.30;6.55;;;6.80;99.50;;;;;;4944522;28;20066;-80
2021/01/12 04:12:52;;;;;;;12.60;6.20;;;6.80;99.50;;;;;;4965740;28;20700;-80
2021/01/12 04:15:18;;;;;;;12.25;6.53;;;6.80;99.50;;;;;;4961821;28;20090;-80
2021/01/12 04:17:44;;;;;;;11.38;5.97;;;6.80;99.60;;;;;;4967309;28;20043;-80
2021/01/12 04:20:10;;;;;;;8.82;5.35;;;6.80;99.60;;;;;;4948652;28;20084;-80
2021/01/12 04:22:36;;;;;;;11.18;4.68;;;6.90;99.60;;;;;;4968378;28;20043;-80
2021/01/12 04:25:04;;;;;;;13.63;4.93;;;6.80;99.60;;;;;;4950940;28;20135;-80
2021/01/12 04:27:31;;;;;;;15.93;5.22;;;6.80;99.60;;;;;;4968573;28;20047;-80
2021/01/12 04:29:56;;;;;;;9.60;4.75;;;6.80;99.60;;;;;;4949463;28;20047;-82
2021/01/12 04:32:22;;;;;;;11.90;4.10;;;6.80;99.60;;;;;;4962210;28;20138;-82
2021/01/12 04:34:48;;;;;;;11.20;5.20;;;6.90;99.60;;;;;;4964214;28;20517;-81
2021/01/12 04:37:13;;;;;;;13.80;5.45;;;6.80;99.60;;;;;;4941718;28;20058;-81
2021/01/12 04:39:39;;;;;;;13.07;5.13;;;6.90;99.60;;;;;;4964301;28;20480;-81
2021/01/12 04:42:05;;;;;;;7.82;4.72;;;6.90;99.60;;;;;;4958769;28;20035;-81
2021/01/12 04:44:30;;;;;;;16.90;5.75;;;6.90;99.60;;;;;;4967603;28;20051;-81
2021/01/12 04:46:56;;;;;;;14.80;6.00;;;6.90;99.60;;;;;;4956864;28;20485;-81
2021/01/12 04:49:22;;;;;;;11.02;5.32;;;7.00;99.60;;;;;;4966378;28;20495;-80
2021/01/12 04:51:48;;;;;;;13.27;5.05;;;6.90;99.60;;;;;;4957917;28;20038;-80
2021/01/12 04:54:14;;;;;;;18.25;6.43;;;7.00;99.60;;;;;;4961492;28;20080;-80
2021/01/12 04:56:42;;;;;;;13.43;5.97;;;6.90;99.60;;;;;;4960000;28;20046;-80
2021/01/12 04:59:08;;;;;;;15.27;7.20;;;6.90;99.60;;;;;;4951684;28;20150;-80
2021/01/12 05:01:34;;;;;;;14.98;7.75;;;6.90;99.60;;;;;;4964161;28;20141;-80
2021/01/12 05:04:04;;;;;;;16.52;7.82;;;6.80;99.60;;;;;;4942186;28;20500;-80
2021/01/12 05:06:30;;;;;;;15.43;7.40;;;7.00;99.60;;;;;;4966998;28;20043;-80
2021/01/12 05:08:57;;;;;;;13.95;6.88;;;6.90;99.60;;;;;;4958095;28;20058;-80
2021/01/12 05:11:34;;;;;;;14.02;6.25;;;6.90;99.60;;;;;;4965613;28;20035;-80
2021/01/12 05:14:09;;;;;;;20.33;6.95;;;6.90;99.60;;;;;;4955405;28;20034;-80
2021/01/12 05:16:57;;;;;;;21.02;7.85;;;6.90;99.60;;;;;;4967911;28;20051;-80
2021/01/12 05:19:26;;;;;;;20.75;7.40;;;6.90;99.60;;;;;;4965649;28;20039;-80
2021/01/12 05:21:56;;;;;;;20.38;7.22;;;6.90;99.60;;;;;;4969420;28;20035;-80
2021/01/12 05:24:22;;;;;;;17.25;6.80;;;6.90;99.60;;;;;;4960777;28;20042;-80
2021/01/12 05:26:48;;;;;;;15.07;5.80;;;7.00;99.70;;;;;;4968444;28;20047;-80
2021/01/12 05:29:15;;;;;;;19.08;6.00;;;6.90;99.60;;;;;;4949290;28;20062;-80
2021/01/12 05:31:47;;;;;;;14.15;6.30;;;6.90;99.70;;;;;;4966969;28;20041;-81
2021/01/12 05:34:16;;;;;;;12.95;5.90;;;7.00;99.70;;;;;;4960892;28;20473;-82
2021/01/12 05:36:48;;;;;;;11.40;5.28;;;6.90;99.70;;;;;;4967722;28;20042;-82
2021/01/12 05:39:18;;;;;;;12.85;6.38;;;6.90;99.60;;;;;;4942002;28;20664;-82
2021/01/12 05:41:46;;;;;;;14.18;6.35;;;7.00;99.70;;;;;;4965011;28;20039;-82
2021/01/12 05:44:14;;;;;;;11.50;5.72;;;7.00;99.70;;;;;;4962328;28;20051;-82
2021/01/12 05:46:43;;;;;;;16.52;6.97;;;6.90;99.70;;;;;;4968644;28;20050;-80
2021/01/12 05:49:10;;;;;;;11.93;4.63;;;7.00;99.70;;;;;;4958653;28;20810;-80
2021/01/12 05:51:43;;;;;;;19.48;6.35;;;6.90;99.70;;;;;;4948986;28;20113;-80
2021/01/12 05:54:13;;;;;;;14.95;5.40;;;7.00;99.70;;;;;;4961835;28;20038;-80
2021/01/12 05:56:41;;;;;;;14.35;6.15;;;6.90;99.70;;;;;;4949460;28;20051;-80
2021/01/12 05:59:16;;;;;;;12.40;4.57;;;7.00;99.70;;;;;;4963671;28;20073;-80
2021/01/12 06:01:44;;;;;;;;;;;6.90;99.70;;;;;;4956029;28;20572;-80
2021/01/12 06:04:12;;;;;;;5.65;1.50;;;6.80;99.50;;;;;;4964555;28;19917;-79
2021/01/12 06:06:40;;;;;;;6.53;1.15;;;6.80;99.30;;;;;;4967603;28;20043;-80
2021/01/12 06:09:07;;;;;;;4.53;0.70;;;6.70;99.00;;;;;;4967958;28;20894;-80
2021/01/12 06:11:37;;;;;;;7.25;0.75;;;6.50;98.70;;;;;;4962299;28;20494;-80
2021/01/12 06:14:07;;;;;;;4.45;1.10;;;6.40;98.60;;;;;;4960092;28;20094;-80
2021/01/12 06:16:35;;;;;;;6.07;0.90;;;6.30;98.40;;;;;;4961300;28;20382;-80
2021/01/12 06:19:10;;;;;;;4.68;0.47;;;6.10;98.50;;;;;;4967865;28;20042;-80
2021/01/12 06:21:55;;;;;;;6.28;0.60;;;6.10;98.70;;;;;;4958658;28;20126;-80
2021/01/12 06:24:25;;;;;;;;;;;6.10;98.70;;;;;;4966436;28;20054;-80
2021/01/12 06:26:53;;;;;;;6.88;0.93;;;5.90;98.30;;;;;;4962788;28;20274;-79
2021/01/12 06:29:22;;;;;;;9.48;0.80;;;5.90;98.80;;;;;;4970596;28;20383;-79
2021/01/12 06:31:49;;;;;;;6.88;0.90;;;5.90;98.90;;;;;;4963052;28;20057;-81
2021/01/12 06:34:19;;;;;;;6.40;1.00;;;5.90;99.00;;;;;;4967714;28;20050;-81
2021/01/12 06:36:52;;;;;;;3.38;0.63;;;5.90;99.10;;;;;;4965331;28;20043;-85
2021/01/12 06:39:38;;;;;;;4.40;0.70;;;5.80;99.10;;;;;;4970621;28;20050;-82
2021/01/12 06:42:05;;;;;;;4.93;0.90;;;5.80;99.10;;;;;;4961510;28;20049;-85
2021/01/12 06:44:33;;;;;;;7.00;0.93;;;5.80;99.10;;;;;;4966914;28;20035;-85
2021/01/12 06:47:00;;;;;;;8.10;0.98;;;5.70;99.20;;;;;;4961847;28;20558;-83
2021/01/12 06:49:27;;;;;;;7.80;1.17;;;5.70;99.20;;;;;;4950226;28;20654;-82
2021/01/12 06:52:06;;;;;;;5.47;1.13;;;5.70;99.20;;;;;;4957710;28;20130;-82
2021/01/12 06:54:41;;;;;;;9.02;1.45;;;5.60;99.10;;;;;;4969605;28;20078;-83
2021/01/12 06:57:22;;;;;;;5.25;1.45;;;5.60;99.20;;;;;;4957794;28;20039;-82
2021/01/12 06:59:55;;;;;;;7.65;2.28;;;5.50;99.10;;;;;;4961719;28;20588;-82
2021/01/12 07:02:23;;;;;;;8.48;1.50;;;5.60;99.10;;;;;;4962677;28;20051;-82
2021/01/12 07:05:11;;;;;;;9.45;1.70;;;5.50;99.10;;;;;;4966539;28;20043;-82
2021/01/12 07:07:50;;;;;;;8.90;1.17;;;5.50;99.10;;;;;;4957652;28;20415;-82
2021/01/12 07:10:19;;;;;;;5.70;1.20;;;5.50;99.10;;;;;;4970347;28;20411;-82
2021/01/12 07:12:45;;;;;;;11.35;1.23;;;5.50;99.10;;;;;;4960984;28;20061;-82
2021/01/12 07:15:16;;;;;;;7.53;1.15;;;5.40;99.00;;;;;;4956704;28;20055;-82
2021/01/12 07:17:42;;;;;;;6.10;1.13;;;5.40;99.10;;;;;;4963112;28;20043;-82
2021/01/12 07:20:26;;;;;;;11.15;2.80;;;5.40;99.10;;;;;;4972352;28;20055;-82
2021/01/12 07:22:57;;;;;;;9.88;0.88;;;5.30;99.10;;;;;;4948270;28;20693;-83
2021/01/12 07:25:49;;;;;;;13.73;1.45;;;5.30;99.10;;;;;;4968518;28;20054;-83
2021/01/12 07:28:14;;;;;;;13.50;1.40;;;5.30;99.10;;;;;;4940007;29;20055;-82
2021/01/12 07:30:46;;;;;;;7.28;1.48;;;5.30;99.00;;;;;;4967157;28;20051;-83
2021/01/12 07:33:27;;;;;;;10.77;1.73;;;5.30;99.10;;;;;;4965370;28;20555;-83
2021/01/12 07:35:56;;;;;;;9.60;1.35;;;5.30;99.10;;;;;;4954425;28;20058;-83
2021/01/12 07:38:29;;;;;;;8.43;1.13;;;5.30;99.40;;;;;;4954030;28;20069;-83
2021/01/12 07:40:58;;;;;;;10.55;1.58;;;5.20;99.10;;;;;;4970533;28;20059;-83
2021/01/12 07:43:25;;;;;;;13.23;1.45;;;5.30;99.10;;;;;;4967059;28;20050;-83
2021/01/12 07:45:53;;;;;;;17.83;1.90;;;5.30;99.10;;;;;;4964027;28;20481;-83
2021/01/12 07:48:19;;;;;;;11.63;1.67;;;5.20;99.10;;;;;;4971829;28;20121;-83
2021/01/12 07:50:47;;;;;;;9.25;1.60;;;5.20;99.20;;;;;;4961503;28;20070;-82
2021/01/12 07:53:16;;;;;;;10.35;2.10;;;5.30;99.30;;;;;;4970290;28;20114;-82
2021/01/12 07:55:46;;;;;;;16.85;2.30;;;5.30;99.20;;;;;;4951206;28;20491;-83
2021/01/12 07:58:14;;;;;;;13.85;2.22;;;5.30;99.30;;;;;;4970294;28;20073;-82
2021/01/12 08:00:41;;;;;;;18.13;3.00;;;5.30;99.40;;;;;;4960865;28;20432;-82
2021/01/12 08:03:07;;;;;;;10.82;1.70;;;5.30;99.50;;;;;;4974972;28;20108;-82
2021/01/12 08:05:33;;;;;;;10.98;2.22;;;5.30;99.40;;;;;;4964393;28;20043;-82
2021/01/12 08:08:06;;;;;;;15.40;2.35;;;5.30;99.40;;;;;;4959323;28;20051;-82
2021/01/12 08:10:34;;;;;;;11.43;1.90;;;5.30;99.40;;;;;;4960192;28;20053;-83
2021/01/12 08:13:07;;;;;;;9.50;1.77;;;5.30;99.50;;;;;;4952340;28;20058;-83
2021/01/12 08:15:35;;;;;;;9.15;1.38;;;5.20;99.40;;;;;;4968068;28;20039;-82
2021/01/12 08:18:04;;;;;;;6.18;1.08;;;5.20;99.40;;;;;;4972858;28;20069;-82
2021/01/12 08:20:30;;;;;;;11.93;1.15;;;5.20;99.50;;;;;;4949538;28;20070;-82
2021/01/12 08:22:57;;;;;;;9.90;1.10;;;5.20;99.50;;;;;;4974172;28;20077;-82
2021/01/12 08:25:25;;;;;;;6.90;1.08;;;5.10;99.40;;;;;;4961428;28;20059;-82
2021/01/12 08:28:00;;;;;;;8.80;1.25;;;5.20;99.50;;;;;;4966227;28;20138;-82
2021/01/12 08:30:31;;;;;;;8.25;1.95;;;5.20;99.50;;;;;;4955901;28;20062;-83
2021/01/12 08:33:25;;;;;;;6.88;1.92;;;5.20;99.50;;;;;;4968236;28;20412;-82
2021/01/12 08:35:56;;;;;;;8.00;1.60;;;5.20;99.50;;;;;;4948967;28;20051;-82
2021/01/12 08:38:24;;;;;;;9.02;2.60;;;5.20;99.50;;;;;;4969401;28;20386;-82
2021/01/12 08:40:50;;;;;;;9.38;1.80;;;5.20;99.50;;;;;;4954857;28;20588;-82
2021/01/12 08:43:20;;;;;;;6.53;1.42;;;5.10;99.50;;;;;;4949818;28;20106;-82
2021/01/12 08:45:47;;;;;;;9.93;1.77;;;5.10;99.50;;;;;;4959111;28;20039;-83
2021/01/12 08:48:15;;;;;;;11.65;1.77;;;5.10;99.50;;;;;;4952479;28;20042;-83
2021/01/12 08:50:42;;;;;;;8.60;1.60;;;5.10;99.40;;;;;;4970276;28;20039;-83
2021/01/12 08:53:09;;;;;;;10.18;1.70;;;5.20;99.50;;;;;;4967118;28;20043;-83
2021/01/12 08:55:35;;;;;;;9.43;1.70;;;5.20;99.50;;;;;;4956271;28;20059;-83
2021/01/12 08:58:04;;;;;;;12.02;2.03;;;5.20;99.50;;;;;;4958240;28;20145;-82
2021/01/12 09:00:33;;;;;;;10.85;1.80;;;5.10;99.60;;;;;;4966090;28;20050;-82
2021/01/12 09:03:00;;;;;;;9.52;1.92;;;5.20;99.70;;;;;;4958477;28;20490;-81
2021/01/12 09:05:27;;;;;;;11.35;1.98;;;5.20;99.60;;;;;;4972159;28;20038;-81
2021/01/12 09:08:06;;;;;;;18.65;2.90;;;5.20;99.60;;;;;;4953162;28;20075;-80
2021/01/12 09:10:33;;;;;;;14.30;2.58;;;5.20;99.60;;;;;;4954274;28;20495;-81
2021/01/12 09:13:00;;;;;;;10.35;2.33;;;5.20;99.60;;;;;;4949312;28;20059;-83
2021/01/12 09:15:33;;;;;;;8.57;2.65;;;5.20;99.60;;;;;;4973106;28;20035;-83
2021/01/12 09:18:23;;;;;;;15.60;1.90;;;5.30;99.60;;;;;;4968566;28;20491;-83
2021/01/12 09:20:57;;;;;;;7.95;1.90;;;5.20;99.40;;;;;;4937963;29;20047;-83
2021/01/12 09:23:24;;;;;;;2.97;0.43;;;5.20;99.30;;;;;;4916749;29;20062;-83
2021/01/12 09:26:03;;;;;;;9.05;1.45;;;5.10;98.80;;;;;;4937450;29;20083;-83
2021/01/12 09:28:39;;;;;;;2.38;0.60;;;5.00;98.20;;;;;;4937081;29;20044;-82
2021/01/12 09:31:09;;;;;;;5.75;0.70;;;4.90;98.10;;;;;;4937855;28;20052;-83
2021/01/12 09:33:38;;;;;;;4.50;1.05;;;4.80;97.80;;;;;;4932772;29;20109;-82
2021/01/12 09:36:13;;;;;;;4.70;1.35;;;4.70;97.90;;;;;;4921998;29;20435;-82
2021/01/12 09:38:39;;;;;;;8.30;1.00;;;4.70;98.30;;;;;;4927330;29;20078;-83
2021/01/12 09:41:06;;;;;;;7.00;0.68;;;4.70;98.10;;;;;;4920511;29;20469;-83
2021/01/12 09:43:33;;;;;;;5.13;0.95;;;4.70;98.40;;;;;;4916713;29;20998;-84
2021/01/12 09:45:59;;;;;;;4.90;0.65;;;4.70;98.20;;;;;;4938981;29;20054;-83
2021/01/12 09:48:25;;;;;;;5.57;0.50;;;4.70;98.10;;;;;;4921288;29;20054;-83
2021/01/12 09:50:51;;;;;;;5.55;0.68;;;4.70;98.10;;;;;;4933069;29;20056;-83
2021/01/12 09:53:17;;;;;;;6.10;0.70;;;4.70;98.10;;;;;;4939053;29;20056;-82
2021/01/12 09:55:43;;;;;;;5.70;1.05;;;4.70;98.20;;;;;;4930948;29;20058;-82
2021/01/12 09:58:10;;;;;;;5.03;0.57;;;4.60;98.10;;;;;;4942216;28;20050;-82
2021/01/12 10:00:36;;;;;;;6.57;1.00;;;4.60;98.20;;;;;;4970622;28;20050;-82
2021/01/12 10:03:04;;;;;;;6.75;0.65;;;4.60;98.30;;;;;;4974007;28;20039;-82
2021/01/12 10:05:30;;;;;;;5.22;0.70;;;4.60;98.30;;;;;;4966399;28;20125;-82
2021/01/12 10:07:56;;;;;;;5.05;0.80;;;4.70;98.50;;;;;;4975470;28;20062;-83
2021/01/12 10:10:21;;;;;;;6.47;0.50;;;4.80;98.50;;;;;;4965662;28;20074;-82
2021/01/12 10:12:47;;;;;;;5.95;0.80;;;4.70;98.30;;;;;;4967850;28;20046;-83
2021/01/12 10:15:13;;;;;;;8.23;0.88;;;4.70;98.40;;;;;;4954370;28;20046;-83
2021/01/12 10:17:39;;;;;;;9.55;6.00;;;4.70;98.20;;;;;;4972720;28;20082;-84
2021/01/12 10:20:06;;;;;;;6.35;0.93;;;4.70;98.10;;;;;;4969625;28;20130;-83
2021/01/12 10:22:34;;;;;;;6.07;1.42;;;4.60;98.00;;;;;;4975262;28;20109;-83
2021/01/12 10:25:01;;;;;;;2.58;0.70;;;4.60;97.80;;;;;;4973513;28;20043;-84
2021/01/12 10:27:34;;;;;;;8.07;0.93;;;4.70;97.50;;;;;;4963605;28;20042;-82
2021/01/12 10:30:00;;;;;;;13.13;1.27;;;4.70;97.30;;;;;;4970960;28;20047;-83
2021/01/12 10:32:26;;;;;;;5.20;0.60;;;4.70;97.10;;;;;;4967411;28;20105;-84
2021/01/12 10:34:52;;;;;;;7.30;0.80;;;4.70;97.10;;;;;;4959560;28;20213;-82
2021/01/12 10:37:18;;;;;;;4.40;0.52;;;4.70;97.00;;;;;;4968776;28;20074;-82
2021/01/12 10:39:45;;;;;;;6.50;0.98;;;4.70;96.30;;;;;;4972880;28;20053;-83
2021/01/12 10:42:11;;;;;;;6.18;0.85;;;4.70;96.40;;;;;;4948555;28;20535;-82
2021/01/12 10:44:36;;;;;;;8.20;1.15;;;4.80;95.60;;;;;;4959048;28;20062;-82
2021/01/12 10:47:02;;;;;;;6.22;0.60;;;4.70;95.80;;;;;;4965929;28;20071;-82
2021/01/12 10:49:28;;;;;;;10.73;1.10;;;4.70;95.90;;;;;;4976063;28;20035;-83
2021/01/12 10:52:02;;;;;;;5.85;0.65;;;4.70;95.80;;;;;;4951511;28;20055;-83
2021/01/12 10:54:28;;;;;;;10.90;1.00;;;4.70;96.00;;;;;;4949837;28;20038;-82
2021/01/12 10:56:54;;;;;;;6.95;1.05;;;4.80;95.60;;;;;;4964749;28;20529;-82
2021/01/12 10:59:20;;;;;;;4.82;1.30;;;4.70;95.20;;;;;;4973204;28;20043;-82
2021/01/12 11:02:12;;;;;;;5.68;0.82;;;4.70;95.20;;;;;;4967073;28;20049;-82
2021/01/12 11:04:38;;;;;;;5.88;0.60;;;4.70;94.20;;;;;;4966346;28;20391;-83
2021/01/12 11:07:04;;;;;;;7.68;1.10;;;4.70;94.30;;;;;;4965094;28;20030;-82
2021/01/12 11:09:31;;;;;;;7.05;0.90;;;4.70;94.60;;;;;;4968490;28;20051;-82
2021/01/12 11:12:03;;;;;;;7.30;1.05;;;4.70;94.00;;;;;;4970537;28;20059;-83
2021/01/12 11:14:29;;;;;;;4.03;0.63;;;4.70;94.70;;;;;;4967498;28;20463;-82
2021/01/12 11:16:55;;;;;;;6.18;0.80;;;4.70;94.40;;;;;;4966495;28;20051;-83
2021/01/12 11:19:21;;;;;;;6.05;0.60;;;4.70;93.90;;;;;;4968687;28;20078;-81
2021/01/12 11:21:49;;;;;;;9.15;0.80;;;4.70;94.00;;;;;;4970264;28;20054;-83
2021/01/12 11:24:19;;;;;;;6.25;0.80;;;4.80;93.70;;;;;;4963461;28;20072;-82
2021/01/12 11:26:47;;;;;;;6.65;0.77;;;4.80;93.30;;;;;;4950321;28;20137;-83
2021/01/12 11:29:14;;;;;;;6.00;0.80;;;4.80;92.80;;;;;;4969040;28;20058;-83
2021/01/12 11:31:40;;;;;;;6.25;0.90;;;4.90;93.00;;;;;;4970014;28;20043;-83
2021/01/12 11:34:07;;;;;;;7.90;1.08;;;4.90;92.80;;;;;;4960675;28;20062;-82
2021/01/12 11:36:44;;;;;;;8.98;1.10;;;4.90;92.60;;;;;;4968010;28;20053;-83
2021/01/12 11:39:15;;;;;;;7.07;0.73;;;4.90;92.40;;;;;;4966926;28;20634;-82
2021/01/12 11:41:51;;;;;;;7.47;1.15;;;4.90;92.30;;;;;;4966957;28;20050;-83
2021/01/12 11:44:18;;;;;;;8.70;1.08;;;4.90;92.10;;;;;;4948183;28;20141;-82
2021/01/12 11:46:45;;;;;;;7.40;1.02;;;4.90;92.20;;;;;;4970746;28;20860;-82
2021/01/12 11:49:11;;;;;;;9.02;0.90;;;5.00;92.20;;;;;;4962057;28;20622;-82
2021/01/12 11:51:49;;;;;;;8.95;1.38;;;5.00;91.90;;;;;;4956396;28;20059;-83
2021/01/12 11:54:16;;;;;;;5.57;0.90;;;5.10;91.90;;;;;;4964082;28;20047;-83
2021/01/12 11:56:47;;;;;;;9.38;0.90;;;5.10;92.20;;;;;;4971740;28;20047;-83
2021/01/12 11:59:13;;;;;;;13.23;1.52;;;5.30;92.40;;;;;;4968594;28;20440;-83
2021/01/12 12:01:48;;;;;;;8.80;0.90;;;5.20;92.40;;;;;;4958461;28;20074;-83
2021/01/12 12:04:16;;;;;;;6.53;1.08;;;5.30;92.10;;;;;;4958198;28;20039;-82
2021/01/12 12:06:47;;;;;;;11.10;1.10;;;5.40;92.40;;;;;;4971237;28;20053;-83
2021/01/12 12:09:13;;;;;;;6.50;1.17;;;5.50;92.60;;;;;;4954037;29;20389;-82
2021/01/12 12:11:42;;;;;;;8.18;0.93;;;5.60;92.50;;;;;;4954408;28;20079;-83
2021/01/12 12:14:10;;;;;;;9.50;1.30;;;5.70;92.30;;;;;;4971404;28;20109;-83
2021/01/12 12:16:36;;;;;;;7.47;0.98;;;5.70;92.30;;;;;;4964358;28;20058;-83
2021/01/12 12:19:03;;;;;;;10.35;0.95;;;5.70;92.40;;;;;;4956263;28;20129;-83
2021/01/12 12:21:30;;;;;;;10.25;1.55;;;5.70;92.40;;;;;;4942234;28;20081;-84
2021/01/12 12:23:56;;;;;;;6.07;0.60;;;5.70;92.30;;;;;;4963859;28;20087;-83
2021/01/12 12:26:22;;;;;;;11.10;1.40;;;5.70;92.60;;;;;;4954257;28;20078;-83
2021/01/12 12:28:48;;;;;;;9.05;1.48;;;5.70;92.40;;;;;;4972465;28;20098;-84
2021/01/12 12:31:14;;;;;;;6.18;0.95;;;5.70;91.80;;;;;;4948413;28;20141;-83
2021/01/12 12:33:40;;;;;;;8.45;1.10;;;5.70;91.80;;;;;;4972052;28;20039;-84
2021/01/12 12:36:15;;;;;;;9.77;1.10;;;5.70;91.70;;;;;;4966645;28;20102;-83
2021/01/12 12:38:45;;;;;;;6.35;1.00;;;5.60;91.00;;;;;;4974801;28;20380;-84
2021/01/12 12:41:13;;;;;;;8.93;1.27;;;5.50;90.80;;;;;;4966430;28;20435;-83
2021/01/12 12:43:41;;;;;;;11.80;1.58;;;5.40;91.00;;;;;;4951736;28;20480;-83
2021/01/12 12:46:07;;;;;;;13.00;1.65;;;5.40;91.40;;;;;;4966830;28;20114;-84
2021/01/12 12:48:34;;;;;;;9.27;1.60;;;5.30;91.60;;;;;;4956638;28;20505;-83
2021/01/12 12:51:00;;;;;;;9.75;1.45;;;5.30;92.10;;;;;;4951660;28;20058;-83
2021/01/12 12:53:29;;;;;;;13.35;1.38;;;5.30;91.10;;;;;;4973030;28;20050;-84
2021/01/12 12:55:59;;;;;;;8.23;1.27;;;5.30;91.60;;;;;;4956628;28;20126;-84
2021/01/12 12:58:26;;;;;;;8.52;1.23;;;5.30;91.70;;;;;;4967397;28;20054;-84